createdAt,value
2018-12-30T00:00:57.157Z,1.10
2018-12-30T00:03:26.822Z,1.00
2018-12-30T00:05:56.927Z,1.00
2018-12-30T00:08:26.975Z,1.00
2018-12-30T00:10:56.857Z,1.00
2018-12-30T00:13:26.808Z,1.10
2018-12-30T00:15:56.484Z,1.00
2018-12-30T00:18:26.185Z,1.10
2018-12-30T00:20:55.814Z,1.00
2018-12-30T00:23:25.459Z,0.90
2018-12-30T00:25:55.129Z,0.70
2018-12-30T00:28:24.858Z,0.60
2018-12-30T00:30:54.506Z,0.50
2018-12-30T00:33:24.235Z,0.30
2018-12-30T00:35:53.875Z,0.30
2018-12-30T00:38:23.467Z,0.30
2018-12-30T00:40:53.112Z,0.30
2018-12-30T00:43:22.738Z,0.40
2018-12-30T00:45:52.398Z,0.40
2018-12-30T00:48:22.427Z,0.50
2018-12-30T00:50:52.127Z,0.50
2018-12-30T00:53:21.735Z,0.50
2018-12-30T00:55:51.537Z,0.50
2018-12-30T00:58:21.229Z,0.50
2018-12-30T01:00:51.265Z,0.50
2018-12-30T01:03:20.927Z,0.40
2018-12-30T01:05:50.581Z,0.40
2018-12-30T01:08:20.278Z,0.30
2018-12-30T01:10:50.082Z,0.30
2018-12-30T01:13:19.792Z,0.30
2018-12-30T01:15:49.387Z,0.30
2018-12-30T01:18:19.082Z,0.30
2018-12-30T01:20:48.720Z,0.30
2018-12-30T01:23:18.348Z,0.30
2018-12-30T01:25:48.048Z,0.40
2018-12-30T01:28:19.708Z,0.40
2018-12-30T01:30:51.996Z,0.30
2018-12-30T01:33:28.992Z,0.30
2018-12-30T01:35:58.703Z,0.40
2018-12-30T01:38:28.475Z,0.40
2018-12-30T01:40:58.161Z,0.40
2018-12-30T01:43:29.987Z,0.40
2018-12-30T01:45:59.709Z,0.50
2018-12-30T01:48:29.334Z,0.50
2018-12-30T01:51:01.591Z,0.30
2018-12-30T01:53:31.316Z,0.20
2018-12-30T01:56:00.924Z,0.10
2018-12-30T01:58:30.605Z,0.20
2018-12-30T02:01:01.591Z,0.20
2018-12-30T02:03:33.348Z,0.20
2018-12-30T02:06:04.371Z,0.20
2018-12-30T02:08:34.023Z,0.10
2018-12-30T02:11:03.702Z,0.10
2018-12-30T02:13:33.444Z,0.00
2018-12-30T02:16:03.114Z,0.00
2018-12-30T02:18:32.752Z,0.10
2018-12-30T02:21:02.414Z,0.10
2018-12-30T02:23:32.053Z,0.10
2018-12-30T02:26:01.677Z,0.00
2018-12-30T02:28:31.446Z,0.00
2018-12-30T02:31:01.101Z,-0.10
2018-12-30T02:33:32.414Z,-0.10
2018-12-30T02:36:02.221Z,-0.10
2018-12-30T02:38:31.820Z,0.00
2018-12-30T02:41:01.495Z,0.00
2018-12-30T02:43:31.155Z,0.00
2018-12-30T02:46:00.772Z,0.00
2018-12-30T02:48:30.550Z,-0.10
2018-12-30T02:51:00.243Z,-0.20
2018-12-30T02:53:29.862Z,-0.20
2018-12-30T02:55:59.534Z,-0.30
2018-12-30T02:58:29.203Z,-0.40
2018-12-30T03:00:58.835Z,-0.30
2018-12-30T03:03:28.476Z,-0.40
2018-12-30T03:05:58.128Z,-0.40
2018-12-30T03:08:27.775Z,-0.30
2018-12-30T03:10:58.034Z,-0.30
2018-12-30T03:13:27.683Z,-0.30
2018-12-30T03:15:57.307Z,-0.30
2018-12-30T03:18:26.991Z,-0.30
2018-12-30T03:20:56.661Z,-0.30
2018-12-30T03:23:26.308Z,-0.40
2018-12-30T03:25:56.071Z,-0.40
2018-12-30T03:28:25.730Z,-0.40
2018-12-30T03:30:55.373Z,-0.40
2018-12-30T03:33:24.993Z,-0.40
2018-12-30T03:35:54.678Z,-0.30
2018-12-30T03:38:24.372Z,-0.20
2018-12-30T03:40:53.983Z,-0.30
2018-12-30T03:43:23.691Z,-0.30
2018-12-30T03:45:53.339Z,-0.30
2018-12-30T03:48:22.972Z,-0.40
2018-12-30T03:50:52.638Z,-0.50
2018-12-30T03:53:22.294Z,-0.50
2018-12-30T03:55:51.942Z,-0.50
2018-12-30T03:58:21.603Z,-0.50
2018-12-30T04:00:51.248Z,-0.60
2018-12-30T04:03:20.867Z,-0.50
2018-12-30T04:05:50.547Z,-0.50
2018-12-30T04:08:20.251Z,-0.60
2018-12-30T04:10:49.887Z,-0.60
2018-12-30T04:13:19.619Z,-0.60
2018-12-30T04:15:49.247Z,-0.60
2018-12-30T04:18:18.865Z,-0.60
2018-12-30T04:20:48.506Z,-0.70
2018-12-30T04:23:18.223Z,-0.70
2018-12-30T04:25:47.925Z,-0.70
2018-12-30T04:28:17.642Z,-0.80
2018-12-30T04:30:47.336Z,-0.80
2018-12-30T04:33:16.966Z,-0.80
2018-12-30T04:35:46.586Z,-0.80
2018-12-30T04:38:16.307Z,-0.70
2018-12-30T04:40:45.957Z,-0.70
2018-12-30T04:43:15.631Z,-0.70
2018-12-30T04:45:45.344Z,-0.70
2018-12-30T04:48:14.973Z,-0.80
2018-12-30T04:50:44.629Z,-0.70
2018-12-30T04:53:14.737Z,-0.80
2018-12-30T04:55:44.385Z,-0.80
2018-12-30T04:58:14.108Z,-0.80
2018-12-30T05:00:43.757Z,-0.80
2018-12-30T05:03:13.867Z,-0.80
2018-12-30T05:05:43.446Z,-0.80
2018-12-30T05:08:13.116Z,-0.80
2018-12-30T05:10:42.747Z,-0.80
2018-12-30T05:13:12.418Z,-0.70
2018-12-30T05:15:42.064Z,-0.70
2018-12-30T05:18:11.706Z,-0.70
2018-12-30T05:20:41.363Z,-0.60
2018-12-30T05:23:11.148Z,-0.60
2018-12-30T05:25:40.808Z,-0.60
2018-12-30T05:28:10.451Z,-0.60
2018-12-30T05:30:40.139Z,-0.60
2018-12-30T05:33:09.808Z,-0.60
2018-12-30T05:35:39.430Z,-0.70
2018-12-30T05:38:09.059Z,-0.70
2018-12-30T05:40:45.878Z,-0.80
2018-12-30T05:43:15.532Z,-0.70
2018-12-30T05:45:45.159Z,-0.70
2018-12-30T05:48:14.829Z,-0.70
2018-12-30T05:50:44.484Z,-0.70
2018-12-30T05:53:16.968Z,-0.80
2018-12-30T05:55:46.661Z,-0.80
2018-12-30T05:58:16.317Z,-0.80
2018-12-30T06:00:46.346Z,-0.90
2018-12-30T06:03:16.019Z,-0.90
2018-12-30T06:05:45.600Z,-0.90
2018-12-30T06:08:15.701Z,-0.80
2018-12-30T06:10:45.368Z,-0.80
2018-12-30T06:13:15.437Z,-0.70
2018-12-30T06:15:45.076Z,-0.80
2018-12-30T06:18:14.768Z,-0.90
2018-12-30T06:20:44.407Z,-1.00
2018-12-30T06:23:14.108Z,-1.00
2018-12-30T06:25:43.741Z,-1.00
2018-12-30T06:28:13.347Z,-1.00
2018-12-30T06:30:42.981Z,-1.00
2018-12-30T06:33:12.693Z,-1.00
2018-12-30T06:35:42.342Z,-0.90
2018-12-30T06:38:11.981Z,-0.90
2018-12-30T06:40:44.848Z,-0.90
2018-12-30T06:43:14.475Z,-0.90
2018-12-30T06:45:44.078Z,-0.90
2018-12-30T06:48:13.776Z,-0.90
2018-12-30T06:50:43.463Z,-0.90
2018-12-30T06:53:17.840Z,-0.90
2018-12-30T06:55:47.519Z,-0.90
2018-12-30T06:58:17.158Z,-0.90
2018-12-30T07:00:46.966Z,-1.00
2018-12-30T07:03:16.613Z,-1.10
2018-12-30T07:05:46.290Z,-1.10
2018-12-30T07:08:15.891Z,-1.10
2018-12-30T07:10:45.543Z,-1.10
2018-12-30T07:13:15.210Z,-1.10
2018-12-30T07:15:44.874Z,-1.10
2018-12-30T07:18:17.856Z,-1.00
2018-12-30T07:20:47.516Z,-1.00
2018-12-30T07:23:17.206Z,-1.00
2018-12-30T07:25:46.929Z,-1.00
2018-12-30T07:28:16.607Z,-1.00
2018-12-30T07:30:46.525Z,-1.00
2018-12-30T07:33:16.192Z,-1.10
2018-12-30T07:35:45.807Z,-1.10
2018-12-30T07:38:15.478Z,-1.10
2018-12-30T07:40:45.120Z,-1.10
2018-12-30T07:43:14.776Z,-1.10
2018-12-30T07:45:44.744Z,-1.10
2018-12-30T07:48:14.379Z,-1.10
2018-12-30T07:50:44.034Z,-1.10
2018-12-30T07:53:14.139Z,-1.10
2018-12-30T07:55:43.895Z,-1.10
2018-12-30T07:58:13.543Z,-1.10
2018-12-30T08:00:43.237Z,-1.10
2018-12-30T08:03:12.903Z,-1.20
2018-12-30T08:05:42.551Z,-1.20
2018-12-30T08:08:12.227Z,-1.20
2018-12-30T08:10:41.902Z,-1.20
2018-12-30T08:13:11.545Z,-1.10
2018-12-30T08:15:41.261Z,-1.10
2018-12-30T08:18:10.870Z,-1.00
2018-12-30T08:20:40.510Z,-1.10
2018-12-30T08:23:10.179Z,-1.10
2018-12-30T08:25:39.828Z,-1.00
2018-12-30T08:28:09.497Z,-1.00
2018-12-30T08:30:39.118Z,-1.00
2018-12-30T08:33:08.804Z,-1.00
2018-12-30T08:35:38.408Z,-1.00
2018-12-30T08:38:08.088Z,-0.90
2018-12-30T08:40:37.704Z,-0.90
2018-12-30T08:43:07.374Z,-0.90
2018-12-30T08:45:37.037Z,-0.90
2018-12-30T08:48:06.716Z,-0.90
2018-12-30T08:50:36.355Z,-0.80
2018-12-30T08:53:06.021Z,-0.70
2018-12-30T08:55:35.711Z,-0.60
2018-12-30T08:58:05.274Z,-0.60
2018-12-30T09:00:34.951Z,-0.50
2018-12-30T09:03:04.630Z,-0.40
2018-12-30T09:05:34.275Z,-0.40
2018-12-30T09:08:03.928Z,-0.30
2018-12-30T09:10:33.583Z,-0.20
2018-12-30T09:13:03.612Z,-0.20
2018-12-30T09:15:33.257Z,-0.10
2018-12-30T09:18:03.977Z,0.00
2018-12-30T09:20:33.762Z,0.00
2018-12-30T09:23:03.404Z,0.10
2018-12-30T09:25:33.071Z,0.20
2018-12-30T09:28:02.753Z,0.30
2018-12-30T09:30:32.439Z,0.40
2018-12-30T09:33:02.070Z,0.60
2018-12-30T09:35:31.696Z,0.70
2018-12-30T09:38:01.540Z,0.90
2018-12-30T09:40:31.198Z,1.00
2018-12-30T09:43:00.800Z,1.10
2018-12-30T09:45:30.524Z,1.10
2018-12-30T09:48:00.156Z,1.20
2018-12-30T09:50:29.868Z,1.30
2018-12-30T09:52:59.673Z,1.40
2018-12-30T09:55:29.310Z,1.50
2018-12-30T09:57:59.194Z,1.60
2018-12-30T10:00:29.221Z,1.70
2018-12-30T10:02:58.852Z,1.80
2018-12-30T10:05:28.466Z,2.00
2018-12-30T10:07:58.101Z,2.10
2018-12-30T10:10:27.851Z,2.20
2018-12-30T10:12:57.495Z,2.30
2018-12-30T10:15:27.188Z,2.40
2018-12-30T10:17:56.856Z,2.50
2018-12-30T10:20:26.518Z,2.60
2018-12-30T10:22:58.894Z,2.70
2018-12-30T10:25:27.557Z,2.70
2018-12-30T10:27:57.441Z,2.70
2018-12-30T10:30:27.111Z,2.70
2018-12-30T10:32:56.892Z,2.70
2018-12-30T10:35:26.715Z,2.70
2018-12-30T10:37:58.178Z,2.70
2018-12-30T10:40:27.854Z,2.70
2018-12-30T10:42:57.615Z,2.70
2018-12-30T10:45:27.434Z,2.80
2018-12-30T10:47:57.124Z,2.80
2018-12-30T10:50:26.774Z,2.80
2018-12-30T10:52:56.751Z,2.80
2018-12-30T10:55:26.358Z,2.90
2018-12-30T10:57:56.342Z,2.90
2018-12-30T11:00:26.208Z,2.90
2018-12-30T11:02:58.264Z,2.90
2018-12-30T11:05:28.957Z,2.90
2018-12-30T11:07:58.854Z,2.90
2018-12-30T11:10:28.499Z,2.90
2018-12-30T11:12:58.187Z,2.90
2018-12-30T11:15:27.887Z,2.90
2018-12-30T11:17:57.528Z,3.00
2018-12-30T11:20:27.151Z,3.00
2018-12-30T11:22:57.117Z,3.00
2018-12-30T11:25:26.743Z,3.10
2018-12-30T11:27:56.367Z,3.10
2018-12-30T11:30:26.195Z,3.20
2018-12-30T11:32:55.829Z,3.20
2018-12-30T11:35:25.492Z,3.20
2018-12-30T11:37:55.130Z,3.30
2018-12-30T11:40:24.799Z,3.30
2018-12-30T11:42:54.390Z,3.30
2018-12-30T11:45:24.064Z,3.30
2018-12-30T11:47:53.695Z,3.30
2018-12-30T11:50:23.342Z,3.30
2018-12-30T11:52:53.012Z,3.40
2018-12-30T11:55:22.658Z,3.40
2018-12-30T11:57:52.312Z,3.40
2018-12-30T12:00:22.016Z,3.50
2018-12-30T12:02:51.689Z,3.50
2018-12-30T12:05:21.375Z,3.50
2018-12-30T12:07:51.024Z,3.60
2018-12-30T12:10:20.647Z,3.70
2018-12-30T12:12:50.291Z,3.80
2018-12-30T12:15:19.979Z,4.10
2018-12-30T12:17:49.618Z,4.20
2018-12-30T12:20:19.318Z,4.50
2018-12-30T12:22:49.989Z,4.80
2018-12-30T12:25:19.651Z,5.10
2018-12-30T12:27:49.482Z,5.40
2018-12-30T12:30:24.924Z,5.50
2018-12-30T12:32:56.837Z,5.60
2018-12-30T12:35:26.409Z,5.70
2018-12-30T12:37:56.175Z,5.90
2018-12-30T12:40:25.889Z,6.00
2018-12-30T12:42:55.530Z,6.00
2018-12-30T12:45:25.198Z,6.10
2018-12-30T12:47:54.858Z,6.30
2018-12-30T12:50:24.466Z,6.40
2018-12-30T12:52:54.097Z,6.50
2018-12-30T12:55:23.730Z,6.50
2018-12-30T12:57:53.356Z,6.60
2018-12-30T13:00:23.037Z,6.80
2018-12-30T13:02:52.655Z,6.90
2018-12-30T13:05:22.288Z,7.00
2018-12-30T13:07:52.041Z,7.10
2018-12-30T13:10:21.634Z,7.30
2018-12-30T13:12:51.276Z,7.40
2018-12-30T13:15:39.932Z,7.50
2018-12-30T13:18:09.598Z,7.60
2018-12-30T13:20:48.728Z,7.70
2018-12-30T13:23:26.142Z,7.80
2018-12-30T13:25:57.491Z,7.80
2018-12-30T13:28:54.188Z,7.90
2018-12-30T13:31:14.646Z,7.90
2018-12-30T13:33:44.038Z,8.00
2018-12-30T13:36:17.686Z,8.00
2018-12-30T13:38:47.457Z,8.00
2018-12-30T13:41:17.270Z,8.10
2018-12-30T13:43:51.599Z,8.30
2018-12-30T13:46:26.364Z,8.30
2018-12-30T13:49:03.993Z,8.20
2018-12-30T13:51:36.639Z,8.20
2018-12-30T13:54:09.731Z,8.30
2018-12-30T13:56:39.523Z,8.20
2018-12-30T13:59:09.274Z,8.20
2018-12-30T14:01:54.470Z,8.10
2018-12-30T14:04:26.418Z,8.00
2018-12-30T14:07:01.854Z,8.00
2018-12-30T14:09:31.109Z,8.00
2018-12-30T14:12:01.055Z,8.00
2018-12-30T14:14:35.144Z,7.90
2018-12-30T14:17:06.866Z,7.90
2018-12-30T14:19:39.625Z,7.90
2018-12-30T14:22:09.603Z,7.80
2018-12-30T14:24:42.018Z,7.80
2018-12-30T14:27:11.887Z,7.80
2018-12-30T14:29:41.563Z,7.80
2018-12-30T14:32:11.365Z,7.80
2018-12-30T14:34:41.131Z,7.80
2018-12-30T14:37:10.805Z,7.80
2018-12-30T14:39:40.456Z,7.80
2018-12-30T14:42:10.266Z,7.80
2018-12-30T14:44:40.183Z,7.80
2018-12-30T14:47:09.829Z,7.70
2018-12-30T14:49:39.525Z,7.80
2018-12-30T14:52:09.138Z,7.70
2018-12-30T14:54:38.823Z,7.70
2018-12-30T14:57:08.508Z,7.70
2018-12-30T14:59:39.675Z,7.70
2018-12-30T15:02:09.296Z,7.70
2018-12-30T15:04:39.012Z,7.60
2018-12-30T15:07:08.643Z,7.60
2018-12-30T15:09:38.305Z,7.60
2018-12-30T15:12:08.092Z,7.60
2018-12-30T15:14:37.746Z,7.50
2018-12-30T15:17:07.399Z,7.50
2018-12-30T15:19:37.099Z,7.50
2018-12-30T15:22:06.769Z,7.50
2018-12-30T15:24:36.440Z,7.40
2018-12-30T15:27:06.122Z,7.40
2018-12-30T15:29:35.783Z,7.30
2018-12-30T15:32:05.773Z,7.30
2018-12-30T15:34:35.461Z,7.20
2018-12-30T15:37:05.131Z,7.20
2018-12-30T15:39:34.817Z,7.10
2018-12-30T15:42:04.638Z,7.20
2018-12-30T15:44:34.325Z,7.10
2018-12-30T15:47:04.031Z,7.10
2018-12-30T15:49:33.797Z,7.20
2018-12-30T15:52:03.482Z,7.20
2018-12-30T15:54:33.493Z,7.20
2018-12-30T15:57:03.450Z,7.20
2018-12-30T15:59:33.541Z,7.10
2018-12-30T16:02:03.641Z,7.10
2018-12-30T16:04:33.682Z,7.10
2018-12-30T16:07:03.569Z,7.10
2018-12-30T16:09:33.712Z,7.00
2018-12-30T16:12:03.602Z,7.00
2018-12-30T16:14:33.670Z,7.00
2018-12-30T16:17:03.659Z,7.00
2018-12-30T16:19:33.586Z,6.90
2018-12-30T16:22:03.632Z,6.90
2018-12-30T16:24:33.534Z,6.90
2018-12-30T16:27:04.575Z,6.90
2018-12-30T16:29:34.458Z,6.90
2018-12-30T16:32:04.329Z,6.90
2018-12-30T16:34:34.201Z,6.90
2018-12-30T16:37:03.891Z,6.90
2018-12-30T16:39:33.591Z,6.80
2018-12-30T16:42:03.434Z,6.80
2018-12-30T16:44:33.312Z,6.80
2018-12-30T16:47:03.455Z,6.80
2018-12-30T16:49:33.363Z,6.80
2018-12-30T16:52:03.301Z,6.90
2018-12-30T16:54:33.235Z,6.90
2018-12-30T16:57:03.547Z,6.90
2018-12-30T16:59:33.664Z,6.90
2018-12-30T17:02:03.877Z,6.90
2018-12-30T17:04:33.871Z,6.90
2018-12-30T17:07:03.916Z,6.90
2018-12-30T17:09:33.928Z,6.90
2018-12-30T17:12:03.977Z,6.80
2018-12-30T17:14:33.943Z,6.80
2018-12-30T17:17:03.756Z,6.80
2018-12-30T17:19:34.004Z,6.80
2018-12-30T17:22:04.109Z,6.70
2018-12-30T17:24:35.042Z,6.70
2018-12-30T17:27:05.073Z,6.60
2018-12-30T17:29:35.016Z,6.60
2018-12-30T17:32:04.897Z,6.60
2018-12-30T17:34:34.999Z,6.70
2018-12-30T17:37:04.803Z,6.70
2018-12-30T17:39:35.949Z,6.70
2018-12-30T17:42:07.293Z,6.70
2018-12-30T17:44:37.371Z,6.60
2018-12-30T17:47:07.441Z,6.50
2018-12-30T17:49:37.446Z,6.50
2018-12-30T17:52:07.642Z,6.50
2018-12-30T17:54:39.130Z,6.50
2018-12-30T17:57:10.333Z,6.40
2018-12-30T17:59:42.728Z,6.40
2018-12-30T18:02:12.681Z,6.40
2018-12-30T18:04:42.800Z,6.40
2018-12-30T18:07:12.597Z,6.40
2018-12-30T18:09:42.407Z,6.40
2018-12-30T18:12:12.069Z,6.30
2018-12-30T18:14:41.965Z,6.20
2018-12-30T18:17:13.712Z,6.20
2018-12-30T18:19:45.853Z,6.30
2018-12-30T18:22:16.424Z,6.20
2018-12-30T18:24:49.022Z,6.30
2018-12-30T18:27:19.402Z,6.30
2018-12-30T18:29:51.361Z,6.30
2018-12-30T18:32:21.408Z,6.40
2018-12-30T18:34:51.456Z,6.30
2018-12-30T18:37:21.328Z,6.20
2018-12-30T18:39:51.524Z,6.20
2018-12-30T18:42:28.932Z,6.20
2018-12-30T18:44:58.943Z,6.20
2018-12-30T18:47:29.382Z,6.20
2018-12-30T18:49:59.351Z,6.20
2018-12-30T18:52:29.551Z,6.30
2018-12-30T18:54:59.614Z,6.20
2018-12-30T18:57:29.583Z,6.20
2018-12-30T18:59:59.641Z,6.20
2018-12-30T19:02:38.020Z,6.30
2018-12-30T19:05:09.667Z,6.30
2018-12-30T19:07:39.728Z,6.40
2018-12-30T19:10:09.754Z,6.50
2018-12-30T19:12:40.068Z,6.40
2018-12-30T19:15:09.970Z,6.40
2018-12-30T19:17:40.254Z,6.40
2018-12-30T19:20:10.092Z,6.40
2018-12-30T19:22:40.020Z,6.40
2018-12-30T19:25:10.248Z,6.40
2018-12-30T19:27:40.158Z,6.40
2018-12-30T19:30:11.878Z,6.40
2018-12-30T19:32:41.816Z,6.40
2018-12-30T19:35:11.624Z,6.40
2018-12-30T19:37:42.773Z,6.40
2018-12-30T19:40:13.322Z,6.40
2018-12-30T19:42:43.085Z,6.40
2018-12-30T19:45:12.981Z,6.40
2018-12-30T19:47:42.810Z,6.40
2018-12-30T19:50:12.815Z,6.40
2018-12-30T19:52:42.707Z,6.50
2018-12-30T19:55:12.961Z,6.50
2018-12-30T19:57:43.049Z,6.60
2018-12-30T20:00:13.226Z,6.60
2018-12-30T20:02:42.928Z,6.70
2018-12-30T20:05:12.905Z,6.70
2018-12-30T20:07:42.827Z,6.70
2018-12-30T20:10:13.107Z,6.70
2018-12-30T20:12:43.067Z,6.60
2018-12-30T20:15:13.061Z,6.70
2018-12-30T20:17:42.929Z,6.70
2018-12-30T20:20:12.820Z,6.80
2018-12-30T20:22:42.811Z,6.80
2018-12-30T20:25:12.809Z,6.80
2018-12-30T20:27:42.767Z,6.80
2018-12-30T20:30:12.542Z,6.90
2018-12-30T20:32:42.687Z,6.90
2018-12-30T20:35:12.508Z,6.80
2018-12-30T20:37:42.148Z,6.80
2018-12-30T20:40:12.104Z,6.80
2018-12-30T20:42:41.965Z,6.80
2018-12-30T20:45:11.759Z,6.80
2018-12-30T20:47:41.591Z,6.80
2018-12-30T20:50:11.765Z,6.80
2018-12-30T20:52:41.632Z,6.80
2018-12-30T20:55:11.516Z,6.80
2018-12-30T20:57:41.813Z,6.70
2018-12-30T21:00:11.865Z,6.70
2018-12-30T21:02:41.943Z,6.70
2018-12-30T21:05:11.642Z,6.70
2018-12-30T21:07:41.618Z,6.70
2018-12-30T21:10:11.404Z,6.70
2018-12-30T21:12:41.649Z,6.70
2018-12-30T21:15:11.610Z,6.70
2018-12-30T21:17:41.655Z,6.60
2018-12-30T21:20:11.437Z,6.60
2018-12-30T21:22:41.194Z,6.60
2018-12-30T21:25:11.068Z,6.60
2018-12-30T21:27:40.995Z,6.60
2018-12-30T21:30:11.232Z,6.60
2018-12-30T21:32:41.147Z,6.60
2018-12-30T21:35:11.155Z,6.60
2018-12-30T21:37:41.159Z,6.50
2018-12-30T21:40:11.070Z,6.40
2018-12-30T21:42:43.831Z,6.30
2018-12-30T21:45:13.277Z,6.40
2018-12-30T21:47:43.258Z,6.40
2018-12-30T21:50:13.480Z,6.40
2018-12-30T21:52:43.462Z,6.40
2018-12-30T21:55:13.481Z,6.40
2018-12-30T21:57:43.907Z,6.50
2018-12-30T22:00:13.898Z,6.50
2018-12-30T22:02:44.001Z,6.50
2018-12-30T22:05:13.920Z,6.40
2018-12-30T22:07:43.959Z,6.40
2018-12-30T22:10:17.394Z,6.40
2018-12-30T22:12:45.212Z,6.40
2018-12-30T22:15:15.091Z,6.40
2018-12-30T22:17:44.979Z,6.30
2018-12-30T22:20:14.896Z,6.20
2018-12-30T22:22:44.757Z,6.20
2018-12-30T22:25:14.573Z,6.20
2018-12-30T22:27:44.438Z,6.20
2018-12-30T22:30:14.241Z,6.10
2018-12-30T22:32:44.494Z,6.10
2018-12-30T22:35:14.494Z,6.00
2018-12-30T22:37:44.150Z,6.00
2018-12-30T22:40:14.151Z,6.00
2018-12-30T22:42:44.266Z,5.90
2018-12-30T22:45:14.325Z,6.00
2018-12-30T22:47:44.174Z,6.00
2018-12-30T22:50:14.199Z,6.00
2018-12-30T22:52:44.361Z,5.90
2018-12-30T22:55:17.858Z,5.80
2018-12-30T22:57:48.050Z,5.90
2018-12-30T23:00:42.960Z,5.80
2018-12-30T23:03:12.969Z,5.80
2018-12-30T23:05:42.969Z,5.70
2018-12-30T23:08:12.932Z,5.60
2018-12-30T23:10:43.419Z,5.60
2018-12-30T23:13:13.215Z,5.50
2018-12-30T23:15:43.114Z,5.50
2018-12-30T23:18:13.008Z,5.60
2018-12-30T23:20:43.047Z,5.70
2018-12-30T23:23:13.142Z,5.80
2018-12-30T23:25:42.931Z,5.80
2018-12-30T23:28:13.046Z,5.70
2018-12-30T23:30:42.978Z,5.60
2018-12-30T23:33:13.149Z,5.60
2018-12-30T23:35:42.984Z,5.50
2018-12-30T23:38:13.035Z,5.40
2018-12-30T23:40:42.931Z,5.40
2018-12-30T23:43:12.895Z,5.40
2018-12-30T23:45:42.796Z,5.40
2018-12-30T23:48:12.727Z,5.50
2018-12-30T23:50:42.963Z,5.40
2018-12-30T23:53:13.082Z,5.40
2018-12-30T23:55:42.914Z,5.40
2018-12-30T23:58:12.758Z,5.30
